sensor_id;sensor_type;location;lat;lon;timestamp;pressure;altitude;pressure_sealevel;temperature
11849;BMP180;5983;49.966;8.052;2024-03-02T00:01:14;99296.00;;;3.20
11849;BMP180;5983;49.966;8.052;2024-03-02T00:03:43;99296.00;;;3.20
11849;BMP180;5983;49.966;8.052;2024-03-02T00:06:10;99292.00;;;3.30
11849;BMP180;5983;49.966;8.052;2024-03-02T00:08:37;99311.00;;;3.20
11849;BMP180;5983;49.966;8.052;2024-03-02T00:11:04;99310.00;;;3.20
11849;BMP180;5983;49.966;8.052;2024-03-02T00:13:31;99304.00;;;3.20
11849;BMP180;5983;49.966;8.052;2024-03-02T00:15:59;99299.00;;;3.20
11849;BMP180;5983;49.966;8.052;2024-03-02T00:18:27;99295.00;;;3.20
11849;BMP180;5983;49.966;8.052;2024-03-02T00:20:58;99298.00;;;3.20
11849;BMP180;5983;49.966;8.052;2024-03-02T00:23:27;99304.00;;;3.10
11849;BMP180;5983;49.966;8.052;2024-03-02T00:25:55;99289.00;;;3.10
11849;BMP180;5983;49.966;8.052;2024-03-02T00:28:24;99308.00;;;3.00
11849;BMP180;5983;49.966;8.052;2024-03-02T00:30:55;99304.00;;;3.10
11849;BMP180;5983;49.966;8.052;2024-03-02T00:33:23;99308.00;;;3.10
11849;BMP180;5983;49.966;8.052;2024-03-02T00:35:50;99310.00;;;3.20
11849;BMP180;5983;49.966;8.052;2024-03-02T00:38:19;99309.00;;;3.10
11849;BMP180;5983;49.966;8.052;2024-03-02T00:40:46;99310.00;;;3.10
11849;BMP180;5983;49.966;8.052;2024-03-02T00:43:36;99308.00;;;3.20
11849;BMP180;5983;49.966;8.052;2024-03-02T00:46:05;99310.00;;;3.30
11849;BMP180;5983;49.966;8.052;2024-03-02T00:48:34;99317.00;;;3.40
11849;BMP180;5983;49.966;8.052;2024-03-02T00:51:03;99296.00;;;3.40
11849;BMP180;5983;49.966;8.052;2024-03-02T00:53:32;99292.00;;;3.50
11849;BMP180;5983;49.966;8.052;2024-03-02T00:55:59;99313.00;;;3.50
11849;BMP180;5983;49.966;8.052;2024-03-02T00:58:26;99299.00;;;3.50
11849;BMP180;5983;49.966;8.052;2024-03-02T01:00:53;99308.00;;;3.50
11849;BMP180;5983;49.966;8.052;2024-03-02T01:03:20;99287.00;;;3.50
11849;BMP180;5983;49.966;8.052;2024-03-02T01:05:46;99280.00;;;3.50
11849;BMP180;5983;49.966;8.052;2024-03-02T01:08:13;99285.00;;;3.50
11849;BMP180;5983;49.966;8.052;2024-03-02T01:10:41;99286.00;;;3.50
11849;BMP180;5983;49.966;8.052;2024-03-02T01:13:08;99285.00;;;3.50
11849;BMP180;5983;49.966;8.052;2024-03-02T01:15:35;99288.00;;;3.40
11849;BMP180;5983;49.966;8.052;2024-03-02T01:18:02;99282.00;;;3.40
11849;BMP180;5983;49.966;8.052;2024-03-02T01:20:29;99282.00;;;3.50
11849;BMP180;5983;49.966;8.052;2024-03-02T01:22:56;99281.00;;;3.50
11849;BMP180;5983;49.966;8.052;2024-03-02T01:25:23;99287.00;;;3.50
11849;BMP180;5983;49.966;8.052;2024-03-02T01:27:51;99278.00;;;3.50
11849;BMP180;5983;49.966;8.052;2024-03-02T01:30:18;99278.00;;;3.50
11849;BMP180;5983;49.966;8.052;2024-03-02T01:32:45;99287.00;;;3.60
11849;BMP180;5983;49.966;8.052;2024-03-02T01:35:12;99277.00;;;3.60
11849;BMP180;5983;49.966;8.052;2024-03-02T01:37:40;99270.00;;;3.50
11849;BMP180;5983;49.966;8.052;2024-03-02T01:40:08;99274.00;;;3.60
11849;BMP180;5983;49.966;8.052;2024-03-02T01:42:36;99270.00;;;3.60
11849;BMP180;5983;49.966;8.052;2024-03-02T01:45:05;99270.00;;;3.50
11849;BMP180;5983;49.966;8.052;2024-03-02T01:47:33;99277.00;;;3.40
11849;BMP180;5983;49.966;8.052;2024-03-02T01:49:59;99264.00;;;3.40
11849;BMP180;5983;49.966;8.052;2024-03-02T01:52:27;99275.00;;;3.40
11849;BMP180;5983;49.966;8.052;2024-03-02T01:54:54;99269.00;;;3.30
11849;BMP180;5983;49.966;8.052;2024-03-02T01:57:20;99266.00;;;3.30
11849;BMP180;5983;49.966;8.052;2024-03-02T01:59:48;99260.00;;;3.30
11849;BMP180;5983;49.966;8.052;2024-03-02T02:02:17;99260.00;;;3.30
11849;BMP180;5983;49.966;8.052;2024-03-02T02:04:44;99262.00;;;3.10
11849;BMP180;5983;49.966;8.052;2024-03-02T02:07:11;99260.00;;;3.00
11849;BMP180;5983;49.966;8.052;2024-03-02T02:09:40;99257.00;;;3.00
11849;BMP180;5983;49.966;8.052;2024-03-02T02:12:07;99264.00;;;3.10
11849;BMP180;5983;49.966;8.052;2024-03-02T02:14:34;99252.00;;;3.10
11849;BMP180;5983;49.966;8.052;2024-03-02T02:17:01;99244.00;;;3.20
11849;BMP180;5983;49.966;8.052;2024-03-02T02:19:30;99257.00;;;3.20
11849;BMP180;5983;49.966;8.052;2024-03-02T02:21:58;99248.00;;;3.20
11849;BMP180;5983;49.966;8.052;2024-03-02T02:24:25;99250.00;;;3.20
11849;BMP180;5983;49.966;8.052;2024-03-02T02:26:52;99250.00;;;3.10
11849;BMP180;5983;49.966;8.052;2024-03-02T02:29:19;99255.00;;;3.00
11849;BMP180;5983;49.966;8.052;2024-03-02T02:31:46;99242.00;;;3.00
11849;BMP180;5983;49.966;8.052;2024-03-02T02:34:14;99235.00;;;2.90
11849;BMP180;5983;49.966;8.052;2024-03-02T02:36:41;99237.00;;;2.90
11849;BMP180;5983;49.966;8.052;2024-03-02T02:39:13;99222.00;;;2.90
11849;BMP180;5983;49.966;8.052;2024-03-02T02:41:42;99227.00;;;2.90
11849;BMP180;5983;49.966;8.052;2024-03-02T02:44:08;99238.00;;;2.80
11849;BMP180;5983;49.966;8.052;2024-03-02T02:46:37;99232.00;;;2.80
11849;BMP180;5983;49.966;8.052;2024-03-02T02:49:04;99233.00;;;2.80
11849;BMP180;5983;49.966;8.052;2024-03-02T02:51:31;99227.00;;;2.80
11849;BMP180;5983;49.966;8.052;2024-03-02T02:53:58;99218.00;;;2.80
11849;BMP180;5983;49.966;8.052;2024-03-02T02:56:26;99228.00;;;2.80
11849;BMP180;5983;49.966;8.052;2024-03-02T02:58:53;99227.00;;;2.80
11849;BMP180;5983;49.966;8.052;2024-03-02T03:01:20;99226.00;;;2.80
11849;BMP180;5983;49.966;8.052;2024-03-02T03:03:47;99218.00;;;2.80
11849;BMP180;5983;49.966;8.052;2024-03-02T03:06:14;99215.00;;;2.80
11849;BMP180;5983;49.966;8.052;2024-03-02T03:08:41;99218.00;;;2.80
11849;BMP180;5983;49.966;8.052;2024-03-02T03:11:08;99216.00;;;2.70
11849;BMP180;5983;49.966;8.052;2024-03-02T03:13:36;99216.00;;;2.70
11849;BMP180;5983;49.966;8.052;2024-03-02T03:16:03;99220.00;;;2.60
11849;BMP180;5983;49.966;8.052;2024-03-02T03:18:31;99212.00;;;2.70
11849;BMP180;5983;49.966;8.052;2024-03-02T03:20:58;99213.00;;;2.70
11849;BMP180;5983;49.966;8.052;2024-03-02T03:23:25;99207.00;;;2.60
11849;BMP180;5983;49.966;8.052;2024-03-02T03:25:51;99201.00;;;2.50
11849;BMP180;5983;49.966;8.052;2024-03-02T03:28:19;99203.00;;;2.50
11849;BMP180;5983;49.966;8.052;2024-03-02T03:30:47;99216.00;;;2.50
11849;BMP180;5983;49.966;8.052;2024-03-02T03:33:14;99207.00;;;2.60
11849;BMP180;5983;49.966;8.052;2024-03-02T03:35:41;99211.00;;;2.60
11849;BMP180;5983;49.966;8.052;2024-03-02T03:38:07;99217.00;;;2.40
11849;BMP180;5983;49.966;8.052;2024-03-02T03:40:34;99217.00;;;2.40
11849;BMP180;5983;49.966;8.052;2024-03-02T03:43:01;99212.00;;;2.40
11849;BMP180;5983;49.966;8.052;2024-03-02T03:45:34;99213.00;;;2.50
11849;BMP180;5983;49.966;8.052;2024-03-02T03:48:03;99210.00;;;2.50
11849;BMP180;5983;49.966;8.052;2024-03-02T03:50:31;99216.00;;;2.40
11849;BMP180;5983;49.966;8.052;2024-03-02T03:52:58;99211.00;;;2.40
11849;BMP180;5983;49.966;8.052;2024-03-02T03:55:25;99211.00;;;2.50
11849;BMP180;5983;49.966;8.052;2024-03-02T03:57:52;99213.00;;;2.50
11849;BMP180;5983;49.966;8.052;2024-03-02T04:00:19;99224.00;;;2.60
11849;BMP180;5983;49.966;8.052;2024-03-02T04:02:46;99205.00;;;2.60
11849;BMP180;5983;49.966;8.052;2024-03-02T04:05:15;99220.00;;;2.60
11849;BMP180;5983;49.966;8.052;2024-03-02T04:07:41;99217.00;;;2.60
11849;BMP180;5983;49.966;8.052;2024-03-02T04:10:09;99214.00;;;2.50
11849;BMP180;5983;49.966;8.052;2024-03-02T04:12:37;99210.00;;;2.60
11849;BMP180;5983;49.966;8.052;2024-03-02T04:15:05;99217.00;;;2.60
11849;BMP180;5983;49.966;8.052;2024-03-02T04:17:34;99213.00;;;2.60
11849;BMP180;5983;49.966;8.052;2024-03-02T04:20:02;99219.00;;;2.60
11849;BMP180;5983;49.966;8.052;2024-03-02T04:22:32;99218.00;;;2.50
11849;BMP180;5983;49.966;8.052;2024-03-02T04:25:00;99224.00;;;2.50
11849;BMP180;5983;49.966;8.052;2024-03-02T04:27:27;99225.00;;;2.50
11849;BMP180;5983;49.966;8.052;2024-03-02T04:29:54;99228.00;;;2.40
11849;BMP180;5983;49.966;8.052;2024-03-02T04:32:21;99233.00;;;2.40
11849;BMP180;5983;49.966;8.052;2024-03-02T04:34:49;99229.00;;;2.40
11849;BMP180;5983;49.966;8.052;2024-03-02T04:37:16;99236.00;;;2.30
11849;BMP180;5983;49.966;8.052;2024-03-02T04:39:44;99228.00;;;2.20
11849;BMP180;5983;49.966;8.052;2024-03-02T04:42:11;99240.00;;;2.20
11849;BMP180;5983;49.966;8.052;2024-03-02T04:44:40;99242.00;;;2.10
11849;BMP180;5983;49.966;8.052;2024-03-02T04:47:06;99235.00;;;2.10
11849;BMP180;5983;49.966;8.052;2024-03-02T04:49:33;99247.00;;;2.20
11849;BMP180;5983;49.966;8.052;2024-03-02T04:52:00;99239.00;;;2.20
11849;BMP180;5983;49.966;8.052;2024-03-02T04:54:27;99251.00;;;2.20
11849;BMP180;5983;49.966;8.052;2024-03-02T04:56:57;99242.00;;;2.30
11849;BMP180;5983;49.966;8.052;2024-03-02T04:59:24;99248.00;;;2.30
11849;BMP180;5983;49.966;8.052;2024-03-02T05:01:51;99234.00;;;2.30
11849;BMP180;5983;49.966;8.052;2024-03-02T05:04:20;99253.00;;;2.30
11849;BMP180;5983;49.966;8.052;2024-03-02T05:06:47;99256.00;;;2.30
11849;BMP180;5983;49.966;8.052;2024-03-02T05:09:18;99259.00;;;2.40
11849;BMP180;5983;49.966;8.052;2024-03-02T05:11:46;99260.00;;;2.40
11849;BMP180;5983;49.966;8.052;2024-03-02T05:14:37;99263.00;;;2.50
11849;BMP180;5983;49.966;8.052;2024-03-02T05:17:08;99270.00;;;2.50
11849;BMP180;5983;49.966;8.052;2024-03-02T05:19:35;99270.00;;;2.60
11849;BMP180;5983;49.966;8.052;2024-03-02T05:22:03;99263.00;;;2.60
11849;BMP180;5983;49.966;8.052;2024-03-02T05:24:32;99257.00;;;2.60
11849;BMP180;5983;49.966;8.052;2024-03-02T05:26:59;99267.00;;;2.60
11849;BMP180;5983;49.966;8.052;2024-03-02T05:29:26;99266.00;;;2.60
11849;BMP180;5983;49.966;8.052;2024-03-02T05:31:54;99274.00;;;2.70
11849;BMP180;5983;49.966;8.052;2024-03-02T05:34:21;99268.00;;;2.70
11849;BMP180;5983;49.966;8.052;2024-03-02T05:36:48;99274.00;;;2.80
11849;BMP180;5983;49.966;8.052;2024-03-02T05:39:15;99274.00;;;2.90
11849;BMP180;5983;49.966;8.052;2024-03-02T05:41:42;99274.00;;;2.90
11849;BMP180;5983;49.966;8.052;2024-03-02T05:44:09;99287.00;;;3.00
11849;BMP180;5983;49.966;8.052;2024-03-02T05:46:38;99280.00;;;3.00
11849;BMP180;5983;49.966;8.052;2024-03-02T05:49:06;99268.00;;;3.10
11849;BMP180;5983;49.966;8.052;2024-03-02T05:51:35;99278.00;;;3.10
11849;BMP180;5983;49.966;8.052;2024-03-02T05:54:02;99268.00;;;3.10
11849;BMP180;5983;49.966;8.052;2024-03-02T05:56:29;99284.00;;;3.20
11849;BMP180;5983;49.966;8.052;2024-03-02T05:58:56;99277.00;;;3.10
11849;BMP180;5983;49.966;8.052;2024-03-02T06:01:34;99272.00;;;3.20
11849;BMP180;5983;49.966;8.052;2024-03-02T06:04:08;99272.00;;;3.20
11849;BMP180;5983;49.966;8.052;2024-03-02T06:06:36;99267.00;;;3.20
11849;BMP180;5983;49.966;8.052;2024-03-02T06:09:05;99281.00;;;3.20
11849;BMP180;5983;49.966;8.052;2024-03-02T06:11:35;99276.00;;;3.30
11849;BMP180;5983;49.966;8.052;2024-03-02T06:14:03;99278.00;;;3.30
11849;BMP180;5983;49.966;8.052;2024-03-02T06:16:30;99283.00;;;3.30
11849;BMP180;5983;49.966;8.052;2024-03-02T06:18:59;99283.00;;;3.30
11849;BMP180;5983;49.966;8.052;2024-03-02T06:21:27;99276.00;;;3.30
11849;BMP180;5983;49.966;8.052;2024-03-02T06:23:54;99282.00;;;3.30
11849;BMP180;5983;49.966;8.052;2024-03-02T06:26:22;99276.00;;;3.40
11849;BMP180;5983;49.966;8.052;2024-03-02T06:28:54;99278.00;;;3.50
11849;BMP180;5983;49.966;8.052;2024-03-02T06:31:21;99289.00;;;3.40
11849;BMP180;5983;49.966;8.052;2024-03-02T06:33:50;99294.00;;;3.40
11849;BMP180;5983;49.966;8.052;2024-03-02T06:36:17;99304.00;;;3.50
11849;BMP180;5983;49.966;8.052;2024-03-02T06:38:47;99305.00;;;3.50
11849;BMP180;5983;49.966;8.052;2024-03-02T06:41:16;99296.00;;;3.50
11849;BMP180;5983;49.966;8.052;2024-03-02T06:43:44;99305.00;;;3.50
11849;BMP180;5983;49.966;8.052;2024-03-02T06:46:11;99307.00;;;3.50
11849;BMP180;5983;49.966;8.052;2024-03-02T06:48:40;99309.00;;;3.60
11849;BMP180;5983;49.966;8.052;2024-03-02T06:51:07;99296.00;;;3.60
11849;BMP180;5983;49.966;8.052;2024-03-02T06:53:33;99306.00;;;3.60
11849;BMP180;5983;49.966;8.052;2024-03-02T06:56:03;99291.00;;;3.70
11849;BMP180;5983;49.966;8.052;2024-03-02T06:58:31;99312.00;;;3.70
11849;BMP180;5983;49.966;8.052;2024-03-02T07:00:58;99309.00;;;3.70
11849;BMP180;5983;49.966;8.052;2024-03-02T07:03:26;99304.00;;;3.70
11849;BMP180;5983;49.966;8.052;2024-03-02T07:05:53;99315.00;;;3.80
11849;BMP180;5983;49.966;8.052;2024-03-02T07:08:19;99318.00;;;3.90
11849;BMP180;5983;49.966;8.052;2024-03-02T07:10:46;99321.00;;;3.90
11849;BMP180;5983;49.966;8.052;2024-03-02T07:13:16;99318.00;;;4.00
11849;BMP180;5983;49.966;8.052;2024-03-02T07:15:43;99313.00;;;4.10
11849;BMP180;5983;49.966;8.052;2024-03-02T07:18:31;99320.00;;;4.20
11849;BMP180;5983;49.966;8.052;2024-03-02T07:20:59;99322.00;;;4.30
11849;BMP180;5983;49.966;8.052;2024-03-02T07:23:26;99326.00;;;4.40
11849;BMP180;5983;49.966;8.052;2024-03-02T07:25:53;99341.00;;;4.40
11849;BMP180;5983;49.966;8.052;2024-03-02T07:28:23;99342.00;;;4.50
11849;BMP180;5983;49.966;8.052;2024-03-02T07:30:57;99337.00;;;4.60
11849;BMP180;5983;49.966;8.052;2024-03-02T07:33:25;99342.00;;;4.60
11849;BMP180;5983;49.966;8.052;2024-03-02T07:35:52;99340.00;;;4.70
11849;BMP180;5983;49.966;8.052;2024-03-02T07:38:20;99331.00;;;4.80
11849;BMP180;5983;49.966;8.052;2024-03-02T07:40:47;99342.00;;;4.90
11849;BMP180;5983;49.966;8.052;2024-03-02T07:43:16;99343.00;;;5.00
11849;BMP180;5983;49.966;8.052;2024-03-02T07:45:44;99346.00;;;5.10
11849;BMP180;5983;49.966;8.052;2024-03-02T07:50:47;99345.00;;;5.30
11849;BMP180;5983;49.966;8.052;2024-03-02T07:53:14;99350.00;;;5.40
11849;BMP180;5983;49.966;8.052;2024-03-02T07:55:41;99354.00;;;5.50
11849;BMP180;5983;49.966;8.052;2024-03-02T07:58:08;99351.00;;;5.70
11849;BMP180;5983;49.966;8.052;2024-03-02T08:00:38;99358.00;;;5.80
11849;BMP180;5983;49.966;8.052;2024-03-02T08:03:06;99364.00;;;6.00
11849;BMP180;5983;49.966;8.052;2024-03-02T08:05:36;99370.00;;;6.30
11849;BMP180;5983;49.966;8.052;2024-03-02T08:08:04;99360.00;;;6.60
11849;BMP180;5983;49.966;8.052;2024-03-02T08:10:31;99371.00;;;6.70
11849;BMP180;5983;49.966;8.052;2024-03-02T08:12:59;99372.00;;;7.00
11849;BMP180;5983;49.966;8.052;2024-03-02T08:15:26;99382.00;;;7.90
11849;BMP180;5983;49.966;8.052;2024-03-02T08:17:52;99388.00;;;10.20
11849;BMP180;5983;49.966;8.052;2024-03-02T08:20:21;99393.00;;;11.60
11849;BMP180;5983;49.966;8.052;2024-03-02T08:22:48;99395.00;;;12.30
11849;BMP180;5983;49.966;8.052;2024-03-02T08:25:14;99397.00;;;13.40
11849;BMP180;5983;49.966;8.052;2024-03-02T08:27:42;99393.00;;;13.30
11849;BMP180;5983;49.966;8.052;2024-03-02T08:30:10;99391.00;;;12.50
11849;BMP180;5983;49.966;8.052;2024-03-02T08:32:37;99386.00;;;11.90
11849;BMP180;5983;49.966;8.052;2024-03-02T08:35:05;99377.00;;;11.50
11849;BMP180;5983;49.966;8.052;2024-03-02T08:37:34;99379.00;;;11.30
11849;BMP180;5983;49.966;8.052;2024-03-02T08:40:01;99384.00;;;11.90
11849;BMP180;5983;49.966;8.052;2024-03-02T08:42:29;99381.00;;;12.10
11849;BMP180;5983;49.966;8.052;2024-03-02T08:44:56;99382.00;;;12.00
11849;BMP180;5983;49.966;8.052;2024-03-02T08:47:23;99390.00;;;11.50
11849;BMP180;5983;49.966;8.052;2024-03-02T08:49:49;99382.00;;;11.10
11849;BMP180;5983;49.966;8.052;2024-03-02T08:52:16;99383.00;;;10.50
11849;BMP180;5983;49.966;8.052;2024-03-02T08:54:44;99389.00;;;10.20
11849;BMP180;5983;49.966;8.052;2024-03-02T08:57:11;99384.00;;;10.00
11849;BMP180;5983;49.966;8.052;2024-03-02T08:59:38;99380.00;;;9.80
11849;BMP180;5983;49.966;8.052;2024-03-02T09:02:05;99393.00;;;9.60
11849;BMP180;5983;49.966;8.052;2024-03-02T09:04:33;99385.00;;;9.40
11849;BMP180;5983;49.966;8.052;2024-03-02T09:07:00;99383.00;;;9.20
11849;BMP180;5983;49.966;8.052;2024-03-02T09:09:26;99373.00;;;9.20
11849;BMP180;5983;49.966;8.052;2024-03-02T09:11:55;99370.00;;;9.10
11849;BMP180;5983;49.966;8.052;2024-03-02T09:14:23;99374.00;;;9.10
11849;BMP180;5983;49.966;8.052;2024-03-02T09:16:50;99375.00;;;9.00
11849;BMP180;5983;49.966;8.052;2024-03-02T09:19:17;99371.00;;;9.00
11849;BMP180;5983;49.966;8.052;2024-03-02T09:21:44;99367.00;;;9.10
11849;BMP180;5983;49.966;8.052;2024-03-02T09:24:11;99374.00;;;9.20
11849;BMP180;5983;49.966;8.052;2024-03-02T09:26:38;99377.00;;;9.30
11849;BMP180;5983;49.966;8.052;2024-03-02T09:29:06;99373.00;;;9.30
11849;BMP180;5983;49.966;8.052;2024-03-02T09:31:33;99375.00;;;9.40
11849;BMP180;5983;49.966;8.052;2024-03-02T09:34:00;99378.00;;;9.60
11849;BMP180;5983;49.966;8.052;2024-03-02T09:36:26;99377.00;;;10.10
11849;BMP180;5983;49.966;8.052;2024-03-02T09:38:53;99372.00;;;10.50
11849;BMP180;5983;49.966;8.052;2024-03-02T09:41:20;99382.00;;;10.80
11849;BMP180;5983;49.966;8.052;2024-03-02T09:43:47;99383.00;;;11.00
11849;BMP180;5983;49.966;8.052;2024-03-02T09:46:15;99382.00;;;11.30
11849;BMP180;5983;49.966;8.052;2024-03-02T09:48:44;99387.00;;;11.90
11849;BMP180;5983;49.966;8.052;2024-03-02T09:51:11;99375.00;;;13.00
11849;BMP180;5983;49.966;8.052;2024-03-02T09:53:38;99376.00;;;13.60
11849;BMP180;5983;49.966;8.052;2024-03-02T09:56:06;99384.00;;;14.40
11849;BMP180;5983;49.966;8.052;2024-03-02T09:58:33;99378.00;;;16.40
11849;BMP180;5983;49.966;8.052;2024-03-02T10:00:59;99386.00;;;17.90
11849;BMP180;5983;49.966;8.052;2024-03-02T10:03:29;99371.00;;;17.20
11849;BMP180;5983;49.966;8.052;2024-03-02T10:06:18;99376.00;;;16.70
11849;BMP180;5983;49.966;8.052;2024-03-02T10:08:45;99385.00;;;16.20
11849;BMP180;5983;49.966;8.052;2024-03-02T10:11:25;99382.00;;;15.80
11849;BMP180;5983;49.966;8.052;2024-03-02T10:14:04;99384.00;;;15.20
11849;BMP180;5983;49.966;8.052;2024-03-02T10:16:32;99384.00;;;14.90
11849;BMP180;5983;49.966;8.052;2024-03-02T10:19:17;99387.00;;;14.70
11849;BMP180;5983;49.966;8.052;2024-03-02T10:21:45;99384.00;;;14.50
11849;BMP180;5983;49.966;8.052;2024-03-02T10:24:12;99378.00;;;14.60
11849;BMP180;5983;49.966;8.052;2024-03-02T10:26:39;99371.00;;;14.60
11849;BMP180;5983;49.966;8.052;2024-03-02T10:29:07;99369.00;;;14.50
11849;BMP180;5983;49.966;8.052;2024-03-02T10:31:37;99371.00;;;13.90
11849;BMP180;5983;49.966;8.052;2024-03-02T10:34:05;99369.00;;;13.10
11849;BMP180;5983;49.966;8.052;2024-03-02T10:36:32;99362.00;;;12.50
11849;BMP180;5983;49.966;8.052;2024-03-02T10:39:01;99361.00;;;12.10
11849;BMP180;5983;49.966;8.052;2024-03-02T10:41:32;99367.00;;;11.70
11849;BMP180;5983;49.966;8.052;2024-03-02T10:43:59;99353.00;;;11.30
11849;BMP180;5983;49.966;8.052;2024-03-02T10:46:27;99361.00;;;11.10
11849;BMP180;5983;49.966;8.052;2024-03-02T10:48:55;99349.00;;;11.00
11849;BMP180;5983;49.966;8.052;2024-03-02T10:51:25;99355.00;;;10.90
11849;BMP180;5983;49.966;8.052;2024-03-02T10:53:54;99347.00;;;10.80
11849;BMP180;5983;49.966;8.052;2024-03-02T10:56:24;99353.00;;;10.80
11849;BMP180;5983;49.966;8.052;2024-03-02T10:58:57;99345.00;;;10.80
11849;BMP180;5983;49.966;8.052;2024-03-02T11:01:29;99352.00;;;10.80
11849;BMP180;5983;49.966;8.052;2024-03-02T11:03:58;99340.00;;;10.90
11849;BMP180;5983;49.966;8.052;2024-03-02T11:06:28;99339.00;;;11.10
11849;BMP180;5983;49.966;8.052;2024-03-02T11:09:01;99343.00;;;11.10
11849;BMP180;5983;49.966;8.052;2024-03-02T11:11:36;99334.00;;;11.20
11849;BMP180;5983;49.966;8.052;2024-03-02T11:14:04;99347.00;;;11.40
11849;BMP180;5983;49.966;8.052;2024-03-02T11:16:36;99334.00;;;11.50
11849;BMP180;5983;49.966;8.052;2024-03-02T11:19:05;99329.00;;;11.80
11849;BMP180;5983;49.966;8.052;2024-03-02T11:21:35;99334.00;;;12.10
11849;BMP180;5983;49.966;8.052;2024-03-02T11:24:28;99332.00;;;12.50
11849;BMP180;5983;49.966;8.052;2024-03-02T11:26:58;99325.00;;;13.10
11849;BMP180;5983;49.966;8.052;2024-03-02T11:29:43;99324.00;;;13.70
11849;BMP180;5983;49.966;8.052;2024-03-02T11:32:15;99317.00;;;15.30
11849;BMP180;5983;49.966;8.052;2024-03-02T11:34:45;99315.00;;;18.10
11849;BMP180;5983;49.966;8.052;2024-03-02T11:37:15;99325.00;;;20.50
11849;BMP180;5983;49.966;8.052;2024-03-02T11:39:43;99326.00;;;22.10
11849;BMP180;5983;49.966;8.052;2024-03-02T11:42:11;99331.00;;;23.30
11849;BMP180;5983;49.966;8.052;2024-03-02T11:44:41;99323.00;;;24.20
11849;BMP180;5983;49.966;8.052;2024-03-02T11:47:10;99325.00;;;24.90
11849;BMP180;5983;49.966;8.052;2024-03-02T11:49:41;99328.00;;;25.50
11849;BMP180;5983;49.966;8.052;2024-03-02T11:52:09;99332.00;;;25.90
11849;BMP180;5983;49.966;8.052;2024-03-02T11:54:39;99322.00;;;26.40
11849;BMP180;5983;49.966;8.052;2024-03-02T11:57:07;99332.00;;;27.20
11849;BMP180;5983;49.966;8.052;2024-03-02T11:59:34;99331.00;;;27.20
11849;BMP180;5983;49.966;8.052;2024-03-02T12:02:02;99329.00;;;27.40
11849;BMP180;5983;49.966;8.052;2024-03-02T12:04:29;99313.00;;;27.00
11849;BMP180;5983;49.966;8.052;2024-03-02T12:06:59;99322.00;;;27.40
11849;BMP180;5983;49.966;8.052;2024-03-02T12:09:28;99313.00;;;27.80
11849;BMP180;5983;49.966;8.052;2024-03-02T12:12:04;99306.00;;;27.40
11849;BMP180;5983;49.966;8.052;2024-03-02T12:14:32;99305.00;;;27.00
11849;BMP180;5983;49.966;8.052;2024-03-02T12:16:59;99304.00;;;26.90
11849;BMP180;5983;49.966;8.052;2024-03-02T12:19:26;99309.00;;;27.10
11849;BMP180;5983;49.966;8.052;2024-03-02T12:21:55;99300.00;;;27.20
11849;BMP180;5983;49.966;8.052;2024-03-02T12:24:23;99313.00;;;27.50
11849;BMP180;5983;49.966;8.052;2024-03-02T12:26:51;99309.00;;;27.60
11849;BMP180;5983;49.966;8.052;2024-03-02T12:29:21;99313.00;;;27.90
11849;BMP180;5983;49.966;8.052;2024-03-02T12:31:50;99308.00;;;27.10
11849;BMP180;5983;49.966;8.052;2024-03-02T12:34:18;99297.00;;;25.90
11849;BMP180;5983;49.966;8.052;2024-03-02T12:36:46;99297.00;;;24.80
11849;BMP180;5983;49.966;8.052;2024-03-02T12:39:15;99292.00;;;24.60
11849;BMP180;5983;49.966;8.052;2024-03-02T12:41:42;99286.00;;;24.40
11849;BMP180;5983;49.966;8.052;2024-03-02T12:44:09;99295.00;;;25.00
11849;BMP180;5983;49.966;8.052;2024-03-02T12:46:38;99288.00;;;25.80
11849;BMP180;5983;49.966;8.052;2024-03-02T12:49:08;99294.00;;;26.50
11849;BMP180;5983;49.966;8.052;2024-03-02T12:51:35;99292.00;;;26.50
11849;BMP180;5983;49.966;8.052;2024-03-02T12:54:03;99283.00;;;26.90
11849;BMP180;5983;49.966;8.052;2024-03-02T12:56:31;99287.00;;;27.70
11849;BMP180;5983;49.966;8.052;2024-03-02T12:58:58;99283.00;;;27.70
11849;BMP180;5983;49.966;8.052;2024-03-02T13:01:25;99291.00;;;28.00
11849;BMP180;5983;49.966;8.052;2024-03-02T13:03:54;99285.00;;;28.40
11849;BMP180;5983;49.966;8.052;2024-03-02T13:06:23;99281.00;;;29.00
11849;BMP180;5983;49.966;8.052;2024-03-02T13:08:50;99271.00;;;29.10
11849;BMP180;5983;49.966;8.052;2024-03-02T13:11:17;99271.00;;;29.10
11849;BMP180;5983;49.966;8.052;2024-03-02T13:13:44;99266.00;;;28.90
11849;BMP180;5983;49.966;8.052;2024-03-02T13:16:11;99262.00;;;28.70
11849;BMP180;5983;49.966;8.052;2024-03-02T13:18:39;99262.00;;;28.30
11849;BMP180;5983;49.966;8.052;2024-03-02T13:21:08;99262.00;;;28.50
11849;BMP180;5983;49.966;8.052;2024-03-02T13:23:35;99256.00;;;28.60
11849;BMP180;5983;49.966;8.052;2024-03-02T13:26:02;99256.00;;;28.60
11849;BMP180;5983;49.966;8.052;2024-03-02T13:28:30;99253.00;;;28.00
11849;BMP180;5983;49.966;8.052;2024-03-02T13:30:57;99250.00;;;27.40
11849;BMP180;5983;49.966;8.052;2024-03-02T13:33:23;99246.00;;;27.50
11849;BMP180;5983;49.966;8.052;2024-03-02T13:35:51;99246.00;;;27.20
11849;BMP180;5983;49.966;8.052;2024-03-02T13:38:20;99245.00;;;27.30
11849;BMP180;5983;49.966;8.052;2024-03-02T13:40:48;99241.00;;;26.90
11849;BMP180;5983;49.966;8.052;2024-03-02T13:43:17;99244.00;;;27.00
11849;BMP180;5983;49.966;8.052;2024-03-02T13:45:44;99239.00;;;26.80
11849;BMP180;5983;49.966;8.052;2024-03-02T13:48:11;99233.00;;;26.90
11849;BMP180;5983;49.966;8.052;2024-03-02T13:50:40;99234.00;;;26.90
11849;BMP180;5983;49.966;8.052;2024-03-02T13:53:07;99245.00;;;26.50
11849;BMP180;5983;49.966;8.052;2024-03-02T13:55:37;99237.00;;;25.80
11849;BMP180;5983;49.966;8.052;2024-03-02T13:58:05;99231.00;;;25.40
11849;BMP180;5983;49.966;8.052;2024-03-02T14:00:33;99245.00;;;25.10
11849;BMP180;5983;49.966;8.052;2024-03-02T14:03:00;99218.00;;;24.10
11849;BMP180;5983;49.966;8.052;2024-03-02T14:05:27;99218.00;;;23.60
11849;BMP180;5983;49.966;8.052;2024-03-02T14:07:53;99214.00;;;23.30
11849;BMP180;5983;49.966;8.052;2024-03-02T14:10:20;99213.00;;;23.00
11849;BMP180;5983;49.966;8.052;2024-03-02T14:12:49;99208.00;;;22.70
11849;BMP180;5983;49.966;8.052;2024-03-02T14:15:16;99202.00;;;22.00
11849;BMP180;5983;49.966;8.052;2024-03-02T14:17:43;99201.00;;;22.00
11849;BMP180;5983;49.966;8.052;2024-03-02T14:20:10;99191.00;;;22.00
11849;BMP180;5983;49.966;8.052;2024-03-02T14:22:39;99193.00;;;22.10
11849;BMP180;5983;49.966;8.052;2024-03-02T14:25:06;99194.00;;;22.30
11849;BMP180;5983;49.966;8.052;2024-03-02T14:27:33;99189.00;;;22.50
11849;BMP180;5983;49.966;8.052;2024-03-02T14:30:02;99196.00;;;22.50
11849;BMP180;5983;49.966;8.052;2024-03-02T14:32:30;99194.00;;;22.10
11849;BMP180;5983;49.966;8.052;2024-03-02T14:34:57;99203.00;;;21.50
11849;BMP180;5983;49.966;8.052;2024-03-02T14:37:24;99198.00;;;21.10